sensor_id;sensor_type;location;lat;lon;timestamp;P1;durP1;ratioP1;P2;durP2;ratioP2
18893;SDS011;9579;49.488;8.226;2022-12-18T00:01:16;37.30;;;29.33;;
18893;SDS011;9579;49.488;8.226;2022-12-18T00:04:06;35.70;;;28.40;;
18893;SDS011;9579;49.488;8.226;2022-12-18T00:06:59;36.50;;;27.13;;
18893;SDS011;9579;49.488;8.226;2022-12-18T00:09:46;39.60;;;29.13;;
18893;SDS011;9579;49.488;8.226;2022-12-18T00:12:33;39.57;;;30.60;;
18893;SDS011;9579;49.488;8.226;2022-12-18T00:15:20;42.87;;;30.37;;
18893;SDS011;9579;49.488;8.226;2022-12-18T00:18:08;41.67;;;30.53;;
18893;SDS011;9579;49.488;8.226;2022-12-18T00:20:59;43.33;;;30.77;;
18893;SDS011;9579;49.488;8.226;2022-12-18T00:23:48;42.80;;;31.23;;
18893;SDS011;9579;49.488;8.226;2022-12-18T00:26:36;42.03;;;31.53;;
18893;SDS011;9579;49.488;8.226;2022-12-18T00:29:24;43.13;;;30.43;;
18893;SDS011;9579;49.488;8.226;2022-12-18T00:32:12;46.27;;;32.47;;
18893;SDS011;9579;49.488;8.226;2022-12-18T00:34:59;44.17;;;31.60;;
18893;SDS011;9579;49.488;8.226;2022-12-18T00:37:47;41.90;;;32.47;;
18893;SDS011;9579;49.488;8.226;2022-12-18T00:40:34;42.93;;;31.20;;
18893;SDS011;9579;49.488;8.226;2022-12-18T00:43:22;40.90;;;30.47;;
18893;SDS011;9579;49.488;8.226;2022-12-18T00:46:08;42.43;;;30.53;;
18893;SDS011;9579;49.488;8.226;2022-12-18T00:48:55;42.10;;;31.50;;
18893;SDS011;9579;49.488;8.226;2022-12-18T00:51:42;41.23;;;31.50;;
18893;SDS011;9579;49.488;8.226;2022-12-18T00:54:31;42.83;;;32.27;;
18893;SDS011;9579;49.488;8.226;2022-12-18T00:57:18;44.43;;;32.30;;
18893;SDS011;9579;49.488;8.226;2022-12-18T07:00:25;50.03;;;34.13;;
18893;SDS011;9579;49.488;8.226;2022-12-18T07:03:12;47.50;;;32.70;;
18893;SDS011;9579;49.488;8.226;2022-12-18T07:05:59;47.00;;;33.70;;
18893;SDS011;9579;49.488;8.226;2022-12-18T07:08:47;47.77;;;34.87;;
18893;SDS011;9579;49.488;8.226;2022-12-18T07:11:35;49.50;;;35.43;;
18893;SDS011;9579;49.488;8.226;2022-12-18T13:16:47;43.00;;;36.40;;
18893;SDS011;9579;49.488;8.226;2022-12-18T13:19:40;42.70;;;36.50;;
18893;SDS011;9579;49.488;8.226;2022-12-18T13:22:34;41.13;;;36.20;;
18893;SDS011;9579;49.488;8.226;2022-12-18T13:25:33;42.07;;;36.90;;
18893;SDS011;9579;49.488;8.226;2022-12-18T13:32:01;42.30;;;35.87;;
18893;SDS011;9579;49.488;8.226;2022-12-18T13:35:38;42.63;;;37.63;;
18893;SDS011;9579;49.488;8.226;2022-12-18T13:42:39;41.73;;;35.73;;
18893;SDS011;9579;49.488;8.226;2022-12-18T13:49:21;43.47;;;37.10;;
18893;SDS011;9579;49.488;8.226;2022-12-18T13:52:21;46.23;;;37.13;;
18893;SDS011;9579;49.488;8.226;2022-12-18T13:55:16;42.07;;;37.47;;
18893;SDS011;9579;49.488;8.226;2022-12-18T13:58:13;44.90;;;37.63;;
18893;SDS011;9579;49.488;8.226;2022-12-18T14:01:13;45.47;;;38.73;;
18893;SDS011;9579;49.488;8.226;2022-12-18T14:04:17;43.07;;;37.17;;
18893;SDS011;9579;49.488;8.226;2022-12-18T14:07:10;44.10;;;39.40;;
18893;SDS011;9579;49.488;8.226;2022-12-18T14:10:01;44.30;;;38.40;;
18893;SDS011;9579;49.488;8.226;2022-12-18T14:12:49;45.23;;;38.30;;
18893;SDS011;9579;49.488;8.226;2022-12-18T14:15:43;43.40;;;37.90;;
18893;SDS011;9579;49.488;8.226;2022-12-18T14:18:45;45.10;;;38.60;;
18893;SDS011;9579;49.488;8.226;2022-12-18T14:21:37;45.03;;;37.37;;
18893;SDS011;9579;49.488;8.226;2022-12-18T14:24:29;40.60;;;35.60;;
18893;SDS011;9579;49.488;8.226;2022-12-18T14:27:21;44.00;;;37.03;;
18893;SDS011;9579;49.488;8.226;2022-12-18T14:30:27;42.20;;;36.77;;
18893;SDS011;9579;49.488;8.226;2022-12-18T14:33:24;43.20;;;37.13;;
18893;SDS011;9579;49.488;8.226;2022-12-18T14:36:20;42.50;;;36.70;;
18893;SDS011;9579;49.488;8.226;2022-12-18T14:39:13;42.30;;;36.47;;
18893;SDS011;9579;49.488;8.226;2022-12-18T14:42:03;44.40;;;39.03;;
18893;SDS011;9579;49.488;8.226;2022-12-18T14:44:51;50.33;;;43.87;;
18893;SDS011;9579;49.488;8.226;2022-12-18T14:47:38;46.50;;;41.50;;
18893;SDS011;9579;49.488;8.226;2022-12-18T14:50:30;43.90;;;38.77;;
18893;SDS011;9579;49.488;8.226;2022-12-18T14:53:21;43.83;;;37.43;;
18893;SDS011;9579;49.488;8.226;2022-12-18T14:56:14;42.97;;;37.23;;
18893;SDS011;9579;49.488;8.226;2022-12-18T14:59:05;42.40;;;37.03;;
18893;SDS011;9579;49.488;8.226;2022-12-18T15:02:03;46.20;;;39.10;;
18893;SDS011;9579;49.488;8.226;2022-12-18T15:04:59;46.77;;;40.80;;
18893;SDS011;9579;49.488;8.226;2022-12-18T15:07:48;45.53;;;39.00;;
18893;SDS011;9579;49.488;8.226;2022-12-18T15:10:45;42.47;;;36.73;;
18893;SDS011;9579;49.488;8.226;2022-12-18T15:13:34;40.70;;;35.60;;
18893;SDS011;9579;49.488;8.226;2022-12-18T15:16:21;42.97;;;36.73;;
18893;SDS011;9579;49.488;8.226;2022-12-18T15:19:08;42.20;;;37.60;;
18893;SDS011;9579;49.488;8.226;2022-12-18T15:21:56;44.07;;;38.40;;
18893;SDS011;9579;49.488;8.226;2022-12-18T15:24:44;43.53;;;38.83;;
18893;SDS011;9579;49.488;8.226;2022-12-18T15:27:51;42.70;;;37.90;;
18893;SDS011;9579;49.488;8.226;2022-12-18T15:30:57;40.13;;;35.73;;
18893;SDS011;9579;49.488;8.226;2022-12-18T15:34:00;40.60;;;35.60;;
18893;SDS011;9579;49.488;8.226;2022-12-18T15:36:59;55.53;;;47.00;;
18893;SDS011;9579;49.488;8.226;2022-12-18T15:39:48;47.20;;;41.97;;
18893;SDS011;9579;49.488;8.226;2022-12-18T15:42:36;45.57;;;39.60;;
18893;SDS011;9579;49.488;8.226;2022-12-18T15:45:42;41.73;;;36.97;;
18893;SDS011;9579;49.488;8.226;2022-12-18T15:48:29;40.83;;;36.40;;
18893;SDS011;9579;49.488;8.226;2022-12-18T15:51:19;41.70;;;35.23;;
18893;SDS011;9579;49.488;8.226;2022-12-18T15:54:09;38.73;;;34.37;;
18893;SDS011;9579;49.488;8.226;2022-12-18T15:57:00;38.37;;;33.87;;
18893;SDS011;9579;49.488;8.226;2022-12-18T16:00:06;40.83;;;34.40;;
18893;SDS011;9579;49.488;8.226;2022-12-18T16:02:59;42.23;;;36.63;;
18893;SDS011;9579;49.488;8.226;2022-12-18T16:05:46;40.90;;;36.03;;
18893;SDS011;9579;49.488;8.226;2022-12-18T16:08:33;39.70;;;35.23;;
18893;SDS011;9579;49.488;8.226;2022-12-18T16:11:21;39.57;;;35.00;;
18893;SDS011;9579;49.488;8.226;2022-12-18T16:14:24;41.00;;;34.97;;
18893;SDS011;9579;49.488;8.226;2022-12-18T16:17:13;39.90;;;35.43;;
18893;SDS011;9579;49.488;8.226;2022-12-18T16:20:11;42.23;;;35.57;;
18893;SDS011;9579;49.488;8.226;2022-12-18T16:23:00;42.40;;;37.23;;
18893;SDS011;9579;49.488;8.226;2022-12-18T16:25:47;41.13;;;36.03;;
18893;SDS011;9579;49.488;8.226;2022-12-18T16:28:34;40.27;;;35.87;;
18893;SDS011;9579;49.488;8.226;2022-12-18T16:31:21;41.33;;;35.93;;
18893;SDS011;9579;49.488;8.226;2022-12-18T16:34:12;42.83;;;36.57;;
18893;SDS011;9579;49.488;8.226;2022-12-18T16:37:03;45.37;;;39.20;;
18893;SDS011;9579;49.488;8.226;2022-12-18T16:39:51;41.33;;;35.20;;
18893;SDS011;9579;49.488;8.226;2022-12-18T16:42:38;47.47;;;41.23;;
18893;SDS011;9579;49.488;8.226;2022-12-18T16:45:26;49.87;;;42.83;;
18893;SDS011;9579;49.488;8.226;2022-12-18T16:48:18;47.50;;;38.93;;
18893;SDS011;9579;49.488;8.226;2022-12-18T16:51:05;48.93;;;41.03;;
18893;SDS011;9579;49.488;8.226;2022-12-18T16:53:54;43.07;;;36.27;;
18893;SDS011;9579;49.488;8.226;2022-12-18T16:56:41;39.47;;;34.53;;
18893;SDS011;9579;49.488;8.226;2022-12-18T16:59:29;39.03;;;33.10;;
18893;SDS011;9579;49.488;8.226;2022-12-18T17:02:17;38.83;;;32.00;;
18893;SDS011;9579;49.488;8.226;2022-12-18T17:05:06;43.07;;;34.03;;
18893;SDS011;9579;49.488;8.226;2022-12-18T17:07:53;39.10;;;32.37;;
18893;SDS011;9579;49.488;8.226;2022-12-18T17:10:44;41.37;;;33.40;;
18893;SDS011;9579;49.488;8.226;2022-12-18T17:13:31;42.43;;;34.87;;
18893;SDS011;9579;49.488;8.226;2022-12-18T17:16:33;41.97;;;34.63;;
18893;SDS011;9579;49.488;8.226;2022-12-18T17:19:23;41.97;;;33.20;;
18893;SDS011;9579;49.488;8.226;2022-12-18T17:22:11;40.77;;;33.80;;
18893;SDS011;9579;49.488;8.226;2022-12-18T17:24:58;41.60;;;33.97;;
18893;SDS011;9579;49.488;8.226;2022-12-18T17:27:47;41.63;;;34.53;;
18893;SDS011;9579;49.488;8.226;2022-12-18T17:30:36;43.60;;;34.60;;
18893;SDS011;9579;49.488;8.226;2022-12-18T17:33:25;42.50;;;33.40;;
18893;SDS011;9579;49.488;8.226;2022-12-18T17:36:13;44.10;;;34.83;;
18893;SDS011;9579;49.488;8.226;2022-12-18T17:39:10;44.37;;;34.53;;
18893;SDS011;9579;49.488;8.226;2022-12-18T17:42:02;44.37;;;34.53;;
18893;SDS011;9579;49.488;8.226;2022-12-18T17:44:53;44.50;;;34.40;;
18893;SDS011;9579;49.488;8.226;2022-12-18T17:47:41;41.60;;;33.70;;
18893;SDS011;9579;49.488;8.226;2022-12-18T17:50:33;42.33;;;33.50;;
18893;SDS011;9579;49.488;8.226;2022-12-18T17:53:21;47.43;;;36.87;;
18893;SDS011;9579;49.488;8.226;2022-12-18T17:56:09;43.70;;;33.83;;
18893;SDS011;9579;49.488;8.226;2022-12-18T17:59:02;43.07;;;32.60;;
18893;SDS011;9579;49.488;8.226;2022-12-18T18:01:50;43.67;;;33.03;;
18893;SDS011;9579;49.488;8.226;2022-12-18T18:04:37;42.73;;;33.07;;
18893;SDS011;9579;49.488;8.226;2022-12-18T18:07:30;41.40;;;33.20;;
18893;SDS011;9579;49.488;8.226;2022-12-18T18:10:28;44.70;;;34.97;;
18893;SDS011;9579;49.488;8.226;2022-12-18T18:13:16;43.63;;;33.50;;
18893;SDS011;9579;49.488;8.226;2022-12-18T18:16:25;43.47;;;33.17;;
18893;SDS011;9579;49.488;8.226;2022-12-18T18:19:31;43.30;;;33.63;;
18893;SDS011;9579;49.488;8.226;2022-12-18T18:22:33;44.30;;;34.00;;
18893;SDS011;9579;49.488;8.226;2022-12-18T18:25:20;49.80;;;36.60;;
18893;SDS011;9579;49.488;8.226;2022-12-18T18:28:07;44.90;;;34.90;;
18893;SDS011;9579;49.488;8.226;2022-12-18T18:30:54;44.90;;;35.50;;
18893;SDS011;9579;49.488;8.226;2022-12-18T18:33:41;43.40;;;34.10;;
18893;SDS011;9579;49.488;8.226;2022-12-18T18:36:30;44.53;;;34.23;;
18893;SDS011;9579;49.488;8.226;2022-12-18T18:39:17;44.07;;;34.07;;
18893;SDS011;9579;49.488;8.226;2022-12-18T18:42:08;43.30;;;34.43;;
18893;SDS011;9579;49.488;8.226;2022-12-18T18:44:55;44.60;;;33.70;;
18893;SDS011;9579;49.488;8.226;2022-12-18T18:47:42;44.10;;;34.90;;
18893;SDS011;9579;49.488;8.226;2022-12-18T18:50:29;43.67;;;33.37;;
18893;SDS011;9579;49.488;8.226;2022-12-18T18:53:18;43.17;;;33.87;;
18893;SDS011;9579;49.488;8.226;2022-12-18T18:56:06;46.23;;;34.17;;
18893;SDS011;9579;49.488;8.226;2022-12-18T18:58:54;41.70;;;31.67;;
18893;SDS011;9579;49.488;8.226;2022-12-18T19:01:42;40.47;;;32.87;;
18893;SDS011;9579;49.488;8.226;2022-12-18T19:04:29;41.87;;;32.10;;
18893;SDS011;9579;49.488;8.226;2022-12-18T19:07:16;42.23;;;34.37;;
18893;SDS011;9579;49.488;8.226;2022-12-18T19:10:05;41.97;;;33.20;;
18893;SDS011;9579;49.488;8.226;2022-12-18T19:12:53;38.77;;;31.83;;
18893;SDS011;9579;49.488;8.226;2022-12-18T19:16:01;42.50;;;33.10;;
18893;SDS011;9579;49.488;8.226;2022-12-18T19:18:49;40.40;;;32.37;;
18893;SDS011;9579;49.488;8.226;2022-12-18T19:21:36;39.47;;;31.87;;
18893;SDS011;9579;49.488;8.226;2022-12-18T19:24:24;42.00;;;32.33;;
18893;SDS011;9579;49.488;8.226;2022-12-18T19:27:12;40.33;;;32.13;;
18893;SDS011;9579;49.488;8.226;2022-12-18T19:30:05;42.73;;;33.53;;
18893;SDS011;9579;49.488;8.226;2022-12-18T19:32:53;38.30;;;31.17;;
18893;SDS011;9579;49.488;8.226;2022-12-18T19:35:40;40.93;;;31.97;;
18893;SDS011;9579;49.488;8.226;2022-12-18T19:38:27;41.57;;;32.40;;
18893;SDS011;9579;49.488;8.226;2022-12-18T19:41:15;41.67;;;32.23;;
18893;SDS011;9579;49.488;8.226;2022-12-18T19:44:04;40.57;;;32.27;;
18893;SDS011;9579;49.488;8.226;2022-12-18T19:46:52;45.07;;;34.33;;
18893;SDS011;9579;49.488;8.226;2022-12-18T19:49:39;39.07;;;31.70;;
18893;SDS011;9579;49.488;8.226;2022-12-18T19:52:26;43.83;;;33.40;;
18893;SDS011;9579;49.488;8.226;2022-12-18T19:55:13;39.37;;;32.70;;
18893;SDS011;9579;49.488;8.226;2022-12-18T19:58:00;41.30;;;32.13;;
18893;SDS011;9579;49.488;8.226;2022-12-18T20:00:50;40.93;;;33.10;;
18893;SDS011;9579;49.488;8.226;2022-12-18T20:03:37;37.97;;;31.73;;
18893;SDS011;9579;49.488;8.226;2022-12-18T20:06:25;41.80;;;33.60;;
18893;SDS011;9579;49.488;8.226;2022-12-18T20:09:14;40.43;;;32.70;;
18893;SDS011;9579;49.488;8.226;2022-12-18T20:12:01;40.97;;;32.70;;
18893;SDS011;9579;49.488;8.226;2022-12-18T20:14:49;41.33;;;34.33;;
18893;SDS011;9579;49.488;8.226;2022-12-18T20:17:37;39.97;;;32.13;;
18893;SDS011;9579;49.488;8.226;2022-12-18T20:20:24;42.37;;;33.90;;
18893;SDS011;9579;49.488;8.226;2022-12-18T20:23:12;39.00;;;31.93;;
18893;SDS011;9579;49.488;8.226;2022-12-18T20:25:59;40.03;;;31.97;;
18893;SDS011;9579;49.488;8.226;2022-12-18T20:28:47;41.67;;;33.47;;
18893;SDS011;9579;49.488;8.226;2022-12-18T20:31:34;41.67;;;33.53;;
18893;SDS011;9579;49.488;8.226;2022-12-18T20:34:23;38.53;;;32.03;;
18893;SDS011;9579;49.488;8.226;2022-12-18T20:37:10;39.93;;;32.53;;
18893;SDS011;9579;49.488;8.226;2022-12-18T20:39:57;38.27;;;32.13;;
18893;SDS011;9579;49.488;8.226;2022-12-18T20:42:44;38.70;;;31.53;;
18893;SDS011;9579;49.488;8.226;2022-12-18T20:45:31;39.00;;;32.40;;
18893;SDS011;9579;49.488;8.226;2022-12-18T20:48:20;39.27;;;31.93;;
18893;SDS011;9579;49.488;8.226;2022-12-18T20:51:09;38.37;;;31.33;;
18893;SDS011;9579;49.488;8.226;2022-12-18T20:53:57;39.53;;;30.80;;
18893;SDS011;9579;49.488;8.226;2022-12-18T20:56:44;36.93;;;30.40;;
18893;SDS011;9579;49.488;8.226;2022-12-18T20:59:31;36.80;;;31.10;;
18893;SDS011;9579;49.488;8.226;2022-12-18T21:02:20;40.53;;;32.50;;
18893;SDS011;9579;49.488;8.226;2022-12-18T21:05:07;38.13;;;31.60;;
18893;SDS011;9579;49.488;8.226;2022-12-18T21:07:56;41.03;;;33.87;;
18893;SDS011;9579;49.488;8.226;2022-12-18T21:10:43;38.00;;;32.53;;
18893;SDS011;9579;49.488;8.226;2022-12-18T21:13:30;39.63;;;33.23;;
18893;SDS011;9579;49.488;8.226;2022-12-18T21:16:17;39.80;;;33.40;;
18893;SDS011;9579;49.488;8.226;2022-12-18T21:19:04;37.77;;;31.93;;
18893;SDS011;9579;49.488;8.226;2022-12-18T21:21:52;37.73;;;31.43;;
18893;SDS011;9579;49.488;8.226;2022-12-18T21:24:42;39.47;;;32.43;;
18893;SDS011;9579;49.488;8.226;2022-12-18T21:27:29;37.93;;;31.50;;
18893;SDS011;9579;49.488;8.226;2022-12-18T21:30:16;37.27;;;31.37;;
18893;SDS011;9579;49.488;8.226;2022-12-18T21:33:03;41.40;;;33.40;;
18893;SDS011;9579;49.488;8.226;2022-12-18T21:35:50;42.17;;;33.23;;
18893;SDS011;9579;49.488;8.226;2022-12-18T21:38:39;38.17;;;32.23;;
18893;SDS011;9579;49.488;8.226;2022-12-18T21:41:28;38.73;;;31.13;;
18893;SDS011;9579;49.488;8.226;2022-12-18T21:44:29;37.47;;;31.20;;
18893;SDS011;9579;49.488;8.226;2022-12-18T21:47:18;39.33;;;33.00;;
18893;SDS011;9579;49.488;8.226;2022-12-18T21:50:05;39.63;;;33.70;;
18893;SDS011;9579;49.488;8.226;2022-12-18T21:52:54;39.77;;;32.37;;
18893;SDS011;9579;49.488;8.226;2022-12-18T21:55:42;39.53;;;32.83;;
18893;SDS011;9579;49.488;8.226;2022-12-18T21:58:30;36.67;;;31.47;;
18893;SDS011;9579;49.488;8.226;2022-12-18T22:01:17;39.37;;;32.57;;
18893;SDS011;9579;49.488;8.226;2022-12-18T22:04:04;39.43;;;33.10;;
18893;SDS011;9579;49.488;8.226;2022-12-18T22:06:51;37.50;;;32.00;;
18893;SDS011;9579;49.488;8.226;2022-12-18T22:09:39;38.73;;;32.23;;
18893;SDS011;9579;49.488;8.226;2022-12-18T22:12:28;37.30;;;31.50;;
18893;SDS011;9579;49.488;8.226;2022-12-18T22:15:23;38.37;;;32.07;;
18893;SDS011;9579;49.488;8.226;2022-12-18T22:18:10;37.50;;;31.93;;
18893;SDS011;9579;49.488;8.226;2022-12-18T22:21:01;39.50;;;32.30;;
18893;SDS011;9579;49.488;8.226;2022-12-18T22:23:51;37.33;;;32.57;;
18893;SDS011;9579;49.488;8.226;2022-12-18T22:26:42;39.70;;;33.23;;
18893;SDS011;9579;49.488;8.226;2022-12-18T22:29:30;38.60;;;31.97;;
18893;SDS011;9579;49.488;8.226;2022-12-18T22:32:35;41.43;;;33.63;;
18893;SDS011;9579;49.488;8.226;2022-12-18T22:35:22;38.73;;;31.83;;
18893;SDS011;9579;49.488;8.226;2022-12-18T22:38:10;36.90;;;31.23;;
18893;SDS011;9579;49.488;8.226;2022-12-18T22:40:57;39.70;;;32.93;;
18893;SDS011;9579;49.488;8.226;2022-12-18T22:43:44;38.37;;;31.53;;
18893;SDS011;9579;49.488;8.226;2022-12-18T22:46:32;36.97;;;32.73;;
18893;SDS011;9579;49.488;8.226;2022-12-18T22:49:22;36.90;;;32.00;;
18893;SDS011;9579;49.488;8.226;2022-12-18T22:52:10;38.97;;;32.73;;
18893;SDS011;9579;49.488;8.226;2022-12-18T22:54:58;38.47;;;32.33;;
18893;SDS011;9579;49.488;8.226;2022-12-18T22:57:45;36.43;;;31.53;;
18893;SDS011;9579;49.488;8.226;2022-12-18T23:00:33;38.60;;;32.57;;
18893;SDS011;9579;49.488;8.226;2022-12-18T23:03:22;40.23;;;33.00;;
18893;SDS011;9579;49.488;8.226;2022-12-18T23:06:11;40.93;;;34.70;;
18893;SDS011;9579;49.488;8.226;2022-12-18T23:08:58;40.63;;;33.70;;
18893;SDS011;9579;49.488;8.226;2022-12-18T23:11:45;41.53;;;33.50;;
18893;SDS011;9579;49.488;8.226;2022-12-18T23:14:33;39.77;;;33.23;;
18893;SDS011;9579;49.488;8.226;2022-12-18T23:17:21;40.03;;;32.80;;
18893;SDS011;9579;49.488;8.226;2022-12-18T23:20:12;39.53;;;32.83;;
18893;SDS011;9579;49.488;8.226;2022-12-18T23:23:03;38.63;;;32.40;;
18893;SDS011;9579;49.488;8.226;2022-12-18T23:25:58;42.47;;;34.30;;
18893;SDS011;9579;49.488;8.226;2022-12-18T23:28:49;42.43;;;34.57;;
18893;SDS011;9579;49.488;8.226;2022-12-18T23:31:37;40.53;;;33.77;;
18893;SDS011;9579;49.488;8.226;2022-12-18T23:34:24;41.07;;;34.27;;
18893;SDS011;9579;49.488;8.226;2022-12-18T23:37:21;39.67;;;33.03;;
18893;SDS011;9579;49.488;8.226;2022-12-18T23:40:29;41.97;;;34.00;;
18893;SDS011;9579;49.488;8.226;2022-12-18T23:43:19;39.17;;;32.63;;
18893;SDS011;9579;49.488;8.226;2022-12-18T23:46:09;42.10;;;34.90;;
18893;SDS011;9579;49.488;8.226;2022-12-18T23:48:57;40.33;;;33.77;;
18893;SDS011;9579;49.488;8.226;2022-12-18T23:51:45;40.13;;;34.07;;
18893;SDS011;9579;49.488;8.226;2022-12-18T23:54:34;40.70;;;33.73;;
18893;SDS011;9579;49.488;8.226;2022-12-18T23:57:25;38.30;;;32.50;;
